createdAt,value
2019-01-06T00:01:05.546Z,5.20
2019-01-06T00:03:53.829Z,5.20
2019-01-06T00:06:40.028Z,5.20
2019-01-06T00:09:32.242Z,5.20
2019-01-06T00:12:20.516Z,5.30
2019-01-06T00:15:04.226Z,5.20
2019-01-06T00:17:51.343Z,5.20
2019-01-06T00:20:44.391Z,5.20
2019-01-06T00:23:32.653Z,5.20
2019-01-06T00:26:30.132Z,5.20
2019-01-06T00:29:33.808Z,5.20
2019-01-06T00:32:20.857Z,5.10
2019-01-06T00:35:28.393Z,5.20
2019-01-06T00:38:35.638Z,5.20
2019-01-06T00:41:42.893Z,5.10
2019-01-06T00:44:50.163Z,5.10
2019-01-06T00:50:56.339Z,5.20
2019-01-06T00:53:56.741Z,5.20
2019-01-06T00:56:56.330Z,5.10
2019-01-06T00:59:50.343Z,5.20
2019-01-06T01:02:50.329Z,5.10
2019-01-06T01:05:50.965Z,5.10
2019-01-06T01:08:48.052Z,5.20
2019-01-06T01:11:48.393Z,5.10
2019-01-06T01:14:48.820Z,5.20
2019-01-06T01:17:51.521Z,5.20
2019-01-06T01:20:56.825Z,5.10
2019-01-06T01:23:45.074Z,5.20
2019-01-06T01:26:52.347Z,5.20
2019-01-06T01:29:59.695Z,5.20
2019-01-06T01:33:07.100Z,5.20
2019-01-06T01:39:09.198Z,5.10
2019-01-06T01:42:14.804Z,5.10
2019-01-06T01:45:15.479Z,5.10
2019-01-06T01:48:15.537Z,5.10
2019-01-06T01:51:16.222Z,5.10
2019-01-06T01:54:21.525Z,5.10
2019-01-06T01:57:21.650Z,5.10
2019-01-06T02:03:26.549Z,5.10
2019-01-06T02:09:35.573Z,5.10
2019-01-06T02:12:38.020Z,5.10
2019-01-06T02:15:37.971Z,5.10
2019-01-06T02:18:37.488Z,5.00
2019-01-06T02:21:37.138Z,5.00
2019-01-06T02:24:37.809Z,5.00
2019-01-06T02:27:38.907Z,5.10
2019-01-06T02:30:39.111Z,5.00
2019-01-06T02:33:39.722Z,5.00
2019-01-06T02:36:40.818Z,5.00
2019-01-06T02:42:43.152Z,4.90
2019-01-06T02:45:31.385Z,4.90
2019-01-06T02:48:38.723Z,4.90
2019-01-06T02:51:46.050Z,4.90
2019-01-06T02:54:53.340Z,4.90
2019-01-06T02:58:00.607Z,5.00
2019-01-06T03:01:07.943Z,4.90
2019-01-06T03:04:15.225Z,4.90
2019-01-06T03:07:22.502Z,4.90
2019-01-06T03:10:29.858Z,4.80
2019-01-06T03:13:37.198Z,4.80
2019-01-06T03:16:44.597Z,4.90
2019-01-06T03:19:51.832Z,4.90
2019-01-06T03:22:59.122Z,4.90
2019-01-06T03:26:06.397Z,4.80
2019-01-06T03:29:13.940Z,4.80
2019-01-06T03:32:21.224Z,4.80
2019-01-06T03:35:28.593Z,4.90
2019-01-06T03:38:35.926Z,4.80
2019-01-06T03:41:43.253Z,4.80
2019-01-06T03:44:43.496Z,4.80
2019-01-06T03:47:43.011Z,4.80
2019-01-06T03:53:49.406Z,4.80
2019-01-06T03:56:49.442Z,4.80
2019-01-06T03:59:45.424Z,4.70
2019-01-06T04:02:52.717Z,4.70
2019-01-06T04:06:00.044Z,4.70
2019-01-06T04:09:07.381Z,4.80
2019-01-06T04:11:55.847Z,4.80
2019-01-06T04:14:53.828Z,4.70
2019-01-06T04:18:01.132Z,4.70
2019-01-06T04:21:08.391Z,4.80
2019-01-06T04:24:04.113Z,4.80
2019-01-06T04:27:04.646Z,4.70
2019-01-06T04:30:07.750Z,4.70
2019-01-06T04:33:07.387Z,4.70
2019-01-06T04:36:06.954Z,4.70
2019-01-06T04:42:15.861Z,4.60
2019-01-06T04:45:18.577Z,4.70
2019-01-06T04:48:18.827Z,4.60
2019-01-06T04:51:18.500Z,4.60
2019-01-06T04:54:26.842Z,4.60
2019-01-06T04:57:27.228Z,4.60
2019-01-06T05:00:27.482Z,4.70
2019-01-06T05:06:13.370Z,4.60
2019-01-06T05:12:24.018Z,4.70
2019-01-06T05:18:33.804Z,4.70
2019-01-06T05:21:34.382Z,4.60
2019-01-06T05:27:43.014Z,4.60
2019-01-06T05:33:55.281Z,4.60
2019-01-06T05:40:07.322Z,4.50
2019-01-06T05:43:09.704Z,4.60
2019-01-06T05:46:03.313Z,4.50
2019-01-06T05:49:06.381Z,4.60
2019-01-06T05:52:06.002Z,4.50
2019-01-06T05:55:09.306Z,4.50
2019-01-06T05:58:10.816Z,4.50
2019-01-06T06:01:10.527Z,4.40
2019-01-06T06:04:12.266Z,4.40
2019-01-06T06:07:15.434Z,4.50
2019-01-06T06:10:18.034Z,4.50
2019-01-06T06:13:19.519Z,4.40
2019-01-06T06:19:29.461Z,4.40
2019-01-06T06:22:14.740Z,4.40
2019-01-06T06:25:15.789Z,4.40
2019-01-06T06:31:27.748Z,4.50
2019-01-06T06:34:28.165Z,4.50
2019-01-06T06:37:27.087Z,4.50
2019-01-06T06:40:30.474Z,4.50
2019-01-06T06:43:11.073Z,4.40
2019-01-06T06:46:17.193Z,4.50
2019-01-06T06:52:21.909Z,4.50
2019-01-06T06:58:24.010Z,4.40
2019-01-06T07:01:06.220Z,4.40
2019-01-06T07:03:55.436Z,4.40
2019-01-06T07:06:42.617Z,4.40
2019-01-06T07:09:36.786Z,4.40
2019-01-06T07:12:24.016Z,4.40
2019-01-06T07:15:11.413Z,4.40
2019-01-06T07:18:08.150Z,4.40
2019-01-06T07:20:58.296Z,4.40
2019-01-06T07:23:45.473Z,4.40
2019-01-06T07:26:32.743Z,4.40
2019-01-06T07:29:16.677Z,4.40
2019-01-06T07:32:11.153Z,4.40
2019-01-06T07:35:17.657Z,4.40
2019-01-06T07:38:12.293Z,4.40
2019-01-06T07:40:59.397Z,4.50
2019-01-06T07:43:47.697Z,4.50
2019-01-06T07:46:35.928Z,4.40
2019-01-06T07:49:39.204Z,4.40
2019-01-06T07:52:20.936Z,4.40
2019-01-06T07:55:18.873Z,4.40
2019-01-06T07:58:05.805Z,4.30
2019-01-06T08:00:54.797Z,4.30
2019-01-06T08:03:43.076Z,4.30
2019-01-06T08:06:43.672Z,4.40
2019-01-06T08:09:31.989Z,4.40
2019-01-06T08:12:18.826Z,4.40
2019-01-06T08:15:07.485Z,4.40
2019-01-06T08:17:55.877Z,4.40
2019-01-06T08:20:51.374Z,4.40
2019-01-06T08:23:56.315Z,4.40
2019-01-06T08:26:53.852Z,4.40
2019-01-06T08:29:45.232Z,4.40
2019-01-06T08:32:36.511Z,4.50
2019-01-06T08:35:23.644Z,4.40
2019-01-06T08:38:10.972Z,4.40
2019-01-06T08:40:51.183Z,4.40
2019-01-06T08:43:38.666Z,4.50
2019-01-06T08:46:25.553Z,4.40
2019-01-06T08:49:16.856Z,4.40
2019-01-06T08:52:24.120Z,4.40
2019-01-06T08:55:26.970Z,4.40
2019-01-06T08:58:30.461Z,4.40
2019-01-06T09:01:35.013Z,4.40
2019-01-06T09:04:46.969Z,4.40
2019-01-06T09:07:34.387Z,4.40
2019-01-06T09:10:21.514Z,4.40
2019-01-06T09:13:19.724Z,4.40
2019-01-06T09:16:06.875Z,4.50
2019-01-06T09:19:10.654Z,4.50
2019-01-06T09:22:08.456Z,4.50
2019-01-06T09:25:05.898Z,4.40
2019-01-06T09:28:04.740Z,4.40
2019-01-06T09:30:52.058Z,4.40
2019-01-06T09:33:46.680Z,4.50
2019-01-06T09:36:33.597Z,4.50
2019-01-06T09:39:30.897Z,4.50
2019-01-06T09:42:28.710Z,4.50
2019-01-06T09:45:16.981Z,4.50
2019-01-06T09:48:03.809Z,4.50
2019-01-06T09:50:50.896Z,4.40
2019-01-06T09:53:42.187Z,4.50
2019-01-06T09:56:42.515Z,4.50
2019-01-06T09:59:37.910Z,4.60
2019-01-06T10:02:29.199Z,4.60
2019-01-06T10:05:20.310Z,4.60
2019-01-06T10:08:08.557Z,4.70
2019-01-06T10:11:05.940Z,4.80
2019-01-06T10:14:02.687Z,4.80
2019-01-06T10:17:09.504Z,4.90
2019-01-06T10:19:56.627Z,4.90
2019-01-06T10:22:48.037Z,4.90
2019-01-06T10:25:35.626Z,4.90
2019-01-06T10:28:39.287Z,5.00
2019-01-06T10:31:27.861Z,5.00
2019-01-06T10:34:15.232Z,5.10
2019-01-06T10:37:02.215Z,5.20
2019-01-06T10:39:49.172Z,5.10
2019-01-06T10:42:49.578Z,5.10
2019-01-06T10:45:34.956Z,5.10
2019-01-06T10:48:22.015Z,5.10
2019-01-06T10:51:13.260Z,5.10
2019-01-06T10:54:01.614Z,5.10
2019-01-06T10:56:48.789Z,5.20
2019-01-06T10:59:39.955Z,5.20
2019-01-06T11:02:34.521Z,5.20
2019-01-06T11:05:23.084Z,5.20
2019-01-06T11:08:11.326Z,5.30
2019-01-06T11:10:58.505Z,5.30
2019-01-06T11:13:41.203Z,5.40
2019-01-06T11:16:47.973Z,5.50
2019-01-06T11:19:36.192Z,5.40
2019-01-06T11:22:23.045Z,5.50
2019-01-06T11:25:14.018Z,5.50
2019-01-06T11:28:01.034Z,5.50
2019-01-06T11:30:48.204Z,5.50
2019-01-06T11:33:43.789Z,5.40
2019-01-06T11:36:31.525Z,5.40
2019-01-06T11:39:19.755Z,5.40
2019-01-06T11:42:08.505Z,5.40
2019-01-06T11:44:59.580Z,5.50
2019-01-06T11:47:47.841Z,5.60
2019-01-06T11:50:35.032Z,5.50
2019-01-06T11:53:23.797Z,5.50
2019-01-06T11:56:12.089Z,5.50
2019-01-06T11:59:03.414Z,5.50
2019-01-06T12:02:06.719Z,5.50
2019-01-06T12:04:53.587Z,5.50
2019-01-06T12:07:37.696Z,5.50
2019-01-06T12:10:17.269Z,5.50
2019-01-06T12:13:13.984Z,5.50
2019-01-06T12:15:56.929Z,5.50
2019-01-06T12:18:44.121Z,5.50
2019-01-06T12:21:32.865Z,5.50
2019-01-06T12:24:22.565Z,5.50
2019-01-06T12:27:08.133Z,5.60
2019-01-06T12:30:02.629Z,5.60
2019-01-06T12:32:59.799Z,5.60
2019-01-06T12:35:50.848Z,5.60
2019-01-06T12:38:43.286Z,5.60
2019-01-06T12:41:34.575Z,5.70
2019-01-06T12:44:22.893Z,5.70
2019-01-06T12:47:16.795Z,5.80
2019-01-06T12:50:04.059Z,5.90
2019-01-06T12:52:58.690Z,5.90
2019-01-06T12:55:53.085Z,5.90
2019-01-06T12:58:50.885Z,5.90
2019-01-06T13:01:37.761Z,5.80
2019-01-06T13:04:24.146Z,5.90
2019-01-06T13:07:11.521Z,5.90
2019-01-06T13:09:58.693Z,5.90
2019-01-06T13:12:45.880Z,5.90
2019-01-06T13:15:37.154Z,5.80
2019-01-06T13:18:24.299Z,5.80
2019-01-06T13:21:24.831Z,5.90
2019-01-06T13:24:29.893Z,5.80
2019-01-06T13:27:21.777Z,5.80
2019-01-06T13:30:16.157Z,5.90
2019-01-06T13:33:05.139Z,5.90
2019-01-06T13:35:56.493Z,5.90
2019-01-06T13:38:53.651Z,5.90
2019-01-06T13:41:40.544Z,5.90
2019-01-06T13:44:28.770Z,5.80
2019-01-06T13:47:20.237Z,5.80
2019-01-06T13:50:12.743Z,5.70
2019-01-06T13:52:59.974Z,5.80
2019-01-06T13:55:57.240Z,5.80
2019-01-06T13:58:44.408Z,5.80
2019-01-06T14:01:26.716Z,5.80
2019-01-06T14:04:16.313Z,5.90
2019-01-06T14:07:03.845Z,5.90
2019-01-06T14:09:50.816Z,5.90
2019-01-06T14:12:31.608Z,6.00
2019-01-06T14:15:18.556Z,6.00
2019-01-06T14:18:05.644Z,6.00
2019-01-06T14:21:03.544Z,6.00
2019-01-06T14:23:52.146Z,6.00
2019-01-06T14:26:40.389Z,6.10
2019-01-06T14:29:22.913Z,6.10
2019-01-06T14:32:26.474Z,6.10
2019-01-06T14:35:20.494Z,6.10
2019-01-06T14:38:14.838Z,6.10
2019-01-06T14:41:06.188Z,6.00
2019-01-06T14:43:50.788Z,6.00
2019-01-06T14:46:37.715Z,6.00
2019-01-06T14:49:32.358Z,6.00
2019-01-06T15:05:34.190Z,6.00
2019-01-06T15:08:28.663Z,5.90
2019-01-06T15:11:14.352Z,5.90
2019-01-06T15:14:18.048Z,5.90
2019-01-06T15:17:03.128Z,5.80
2019-01-06T15:19:50.355Z,5.80
2019-01-06T15:22:47.889Z,5.80
2019-01-06T15:25:34.992Z,5.70
2019-01-06T15:28:23.672Z,5.80
2019-01-06T15:31:14.977Z,5.80
2019-01-06T15:34:12.216Z,5.80
2019-01-06T15:37:12.567Z,5.70
2019-01-06T15:40:12.898Z,5.70
2019-01-06T15:43:16.301Z,5.70
2019-01-06T15:46:00.804Z,5.60
2019-01-06T15:48:48.097Z,5.60
2019-01-06T15:51:30.608Z,5.60
2019-01-06T15:54:17.697Z,5.50
2019-01-06T15:57:04.855Z,5.50
2019-01-06T15:59:56.259Z,5.50
2019-01-06T16:02:56.883Z,5.50
2019-01-06T16:05:41.982Z,5.50
2019-01-06T16:08:39.222Z,5.50
2019-01-06T16:11:26.441Z,5.50
2019-01-06T16:14:24.025Z,5.50
2019-01-06T16:17:18.076Z,5.40
2019-01-06T16:20:09.305Z,5.40
2019-01-06T16:23:00.424Z,5.30
2019-01-06T16:25:54.735Z,5.30
2019-01-06T16:28:43.246Z,5.30
2019-01-06T16:31:30.115Z,5.30
2019-01-06T16:34:24.327Z,5.30
2019-01-06T16:37:12.560Z,5.30
2019-01-06T16:40:04.000Z,5.30
2019-01-06T16:42:58.162Z,5.20
2019-01-06T16:46:04.554Z,5.20
2019-01-06T16:49:03.396Z,5.20
2019-01-06T16:51:51.605Z,5.30
2019-01-06T16:54:45.668Z,5.20
2019-01-06T16:57:32.609Z,5.10
2019-01-06T17:00:26.832Z,5.20
2019-01-06T17:03:33.644Z,5.20
2019-01-06T17:06:14.874Z,5.10
2019-01-06T17:09:05.901Z,5.20
2019-01-06T17:11:50.018Z,5.20
2019-01-06T17:14:29.777Z,5.20
2019-01-06T17:17:36.558Z,5.20
2019-01-06T17:20:36.982Z,5.20
2019-01-06T17:23:23.825Z,5.10
2019-01-06T17:26:12.041Z,5.20
2019-01-06T17:28:59.233Z,5.10
2019-01-06T17:31:53.680Z,5.20
2019-01-06T17:34:41.943Z,5.10
2019-01-06T17:37:41.594Z,5.10
2019-01-06T17:40:29.929Z,5.10
2019-01-06T17:43:33.276Z,5.10
2019-01-06T17:46:21.903Z,5.10
2019-01-06T17:49:10.051Z,5.10
2019-01-06T17:51:57.671Z,5.10
2019-01-06T17:54:52.241Z,5.10
2019-01-06T17:57:33.138Z,5.10
2019-01-06T18:00:20.641Z,5.00
2019-01-06T18:03:08.878Z,5.10
2019-01-06T18:06:06.397Z,5.00
2019-01-06T18:08:54.756Z,5.00
2019-01-06T18:11:47.740Z,5.00
2019-01-06T18:14:36.525Z,5.00
2019-01-06T18:17:23.882Z,5.00
2019-01-06T18:20:30.518Z,5.00
2019-01-06T18:23:33.772Z,5.10
2019-01-06T18:26:21.197Z,5.00
2019-01-06T18:29:02.836Z,5.00
2019-01-06T18:31:51.085Z,5.00
2019-01-06T18:34:39.307Z,5.00
2019-01-06T18:37:27.549Z,5.00
2019-01-06T18:40:14.637Z,5.00
2019-01-06T18:42:55.998Z,5.00
2019-01-06T18:46:02.429Z,5.00
2019-01-06T18:48:50.665Z,5.00
2019-01-06T18:51:52.472Z,5.00
2019-01-06T18:54:49.582Z,4.90
2019-01-06T18:57:52.926Z,4.90
2019-01-06T19:00:56.333Z,4.90
2019-01-06T19:03:55.476Z,4.90
2019-01-06T19:06:49.936Z,4.90
2019-01-06T19:09:38.173Z,4.90
2019-01-06T19:12:25.452Z,5.00
2019-01-06T19:15:13.700Z,4.90
2019-01-06T19:18:00.993Z,4.90
2019-01-06T19:21:07.618Z,4.90
2019-01-06T19:23:54.789Z,4.90
2019-01-06T19:26:43.058Z,4.80
2019-01-06T19:29:49.891Z,4.80
2019-01-06T19:32:38.280Z,4.80
2019-01-06T19:35:25.422Z,4.70
2019-01-06T19:38:20.320Z,4.80
2019-01-06T19:41:08.576Z,4.80
2019-01-06T19:44:15.179Z,4.90
2019-01-06T19:47:02.424Z,4.80
2019-01-06T19:49:54.378Z,4.80
2019-01-06T19:52:42.807Z,4.90
2019-01-06T19:55:24.950Z,4.90
2019-01-06T19:58:19.084Z,4.90
2019-01-06T20:01:06.420Z,4.80
2019-01-06T20:04:09.762Z,4.80
2019-01-06T20:07:00.841Z,4.80
2019-01-06T20:09:47.658Z,4.70
2019-01-06T20:12:44.749Z,4.80
2019-01-06T20:15:42.996Z,4.70
2019-01-06T20:18:34.130Z,4.70
2019-01-06T20:21:21.455Z,4.70
2019-01-06T20:24:08.593Z,4.70
2019-01-06T20:27:02.632Z,4.70
2019-01-06T20:29:49.651Z,4.70
2019-01-06T20:32:44.137Z,4.70
2019-01-06T20:35:26.433Z,4.70
2019-01-06T20:38:24.489Z,4.70
2019-01-06T20:41:31.165Z,4.60
2019-01-06T20:44:19.508Z,4.60
2019-01-06T20:47:16.873Z,4.60
2019-01-06T20:50:10.900Z,4.60
2019-01-06T20:52:57.728Z,4.60
2019-01-06T20:55:44.619Z,4.70
2019-01-06T20:58:31.480Z,4.70
2019-01-06T21:01:25.512Z,4.70
2019-01-06T21:04:12.643Z,4.60
2019-01-06T21:07:13.045Z,4.60
2019-01-06T21:10:00.274Z,4.60
2019-01-06T21:12:47.153Z,4.60
2019-01-06T21:15:44.625Z,4.60
2019-01-06T21:18:31.484Z,4.60
2019-01-06T21:21:18.576Z,4.60
2019-01-06T21:24:05.950Z,4.60
2019-01-06T21:26:55.302Z,4.60
2019-01-06T21:29:50.052Z,4.50
2019-01-06T21:32:37.485Z,4.50
2019-01-06T21:35:24.358Z,4.50
2019-01-06T21:38:12.576Z,4.50
2019-01-06T21:41:01.179Z,4.50
2019-01-06T21:44:00.803Z,4.60
2019-01-06T21:47:07.304Z,4.50
2019-01-06T21:49:58.553Z,4.50
2019-01-06T21:52:52.948Z,4.50
2019-01-06T21:55:41.198Z,4.50
2019-01-06T21:58:29.695Z,4.50
2019-01-06T22:01:16.761Z,4.50
2019-01-06T22:04:03.778Z,4.50
2019-01-06T22:06:47.787Z,4.50
2019-01-06T22:09:31.945Z,4.50
2019-01-06T22:12:23.689Z,4.50
2019-01-06T22:15:15.905Z,4.50
2019-01-06T22:18:08.788Z,4.50
2019-01-06T22:21:15.470Z,4.50
2019-01-06T22:24:02.538Z,4.40
2019-01-06T22:26:53.355Z,4.40
2019-01-06T22:29:44.449Z,4.50
2019-01-06T22:32:32.850Z,4.40
2019-01-06T22:35:20.298Z,4.40
2019-01-06T22:38:02.646Z,4.50
2019-01-06T22:40:50.898Z,4.40
2019-01-06T22:43:40.877Z,4.40
2019-01-06T22:46:48.205Z,4.50
2019-01-06T22:49:37.358Z,4.50
2019-01-06T22:52:22.398Z,4.50
2019-01-06T22:55:23.032Z,4.40
2019-01-06T22:58:11.338Z,4.50
2019-01-06T23:00:58.790Z,4.50
2019-01-06T23:03:57.984Z,4.50
2019-01-06T23:06:47.531Z,4.40
2019-01-06T23:09:34.820Z,4.40
2019-01-06T23:12:21.905Z,4.40
2019-01-06T23:15:08.785Z,4.40
2019-01-06T23:17:57.911Z,4.40
2019-01-06T23:20:55.353Z,4.30
2019-01-06T23:23:42.417Z,4.30
2019-01-06T23:26:30.692Z,4.30
2019-01-06T23:29:27.862Z,4.40
2019-01-06T23:32:15.124Z,4.40
2019-01-06T23:35:03.429Z,4.40
2019-01-06T23:38:00.629Z,4.40
2019-01-06T23:40:58.227Z,4.50
2019-01-06T23:43:49.260Z,4.40
2019-01-06T23:46:38.757Z,4.40
2019-01-06T23:49:25.608Z,4.40
2019-01-06T23:52:12.521Z,4.40
2019-01-06T23:55:00.875Z,4.30
2019-01-06T23:58:02.255Z,4.30
